Time;durP1;ratioP1;P1;durP2;ratioP2;P2;SDS_P1;SDS_P2;PMS_P1;PMS_P2;Temp;Humidity;BMP_temperature;BMP_pressure;BME280_temperature;BME280_humidity;BME280_pressure;Samples;Min_cycle;Max_cycle;Signal;HPM_P1;HPM_P2
2022/06/11 00:02:06;;;;;;;20.15;4.80;;;15.10;71.40;;;;;;4088563;28;20069;-82
2022/06/11 00:04:41;;;;;;;16.92;4.93;;;15.10;71.50;;;;;;4091384;28;20046;-82
2022/06/11 00:07:05;;;;;;;17.63;4.68;;;15.10;71.70;;;;;;4093284;28;20106;-82
2022/06/11 00:09:26;;;;;;;16.92;5.10;;;15.10;71.70;;;;;;4089114;28;20039;-82
2022/06/11 00:11:46;;;;;;;16.95;5.55;;;15.10;71.80;;;;;;4089584;28;20042;-82
2022/06/11 00:14:06;;;;;;;13.82;4.88;;;15.10;71.80;;;;;;4088719;28;20126;-82
2022/06/11 00:16:26;;;;;;;14.95;5.30;;;15.10;72.10;;;;;;4091589;28;20074;-82
2022/06/11 00:18:46;;;;;;;19.38;5.50;;;15.10;71.90;;;;;;4085167;28;20094;-82
2022/06/11 00:21:05;;;;;;;18.70;5.15;;;15.10;72.00;;;;;;4080860;28;20101;-82
2022/06/11 00:23:27;;;;;;;14.82;5.13;;;15.10;72.00;;;;;;4066008;29;20167;-82
2022/06/11 00:25:47;;;;;;;18.15;5.78;;;15.10;72.00;;;;;;4071210;28;20103;-82
2022/06/11 00:28:07;;;;;;;17.10;6.63;;;15.20;72.10;;;;;;4074857;28;20166;-82
2022/06/11 00:30:27;;;;;;;14.80;5.47;;;15.20;72.10;;;;;;4079066;28;20049;-82
2022/06/11 00:32:47;;;;;;;18.60;5.50;;;15.20;72.20;;;;;;4082315;28;20127;-81
2022/06/11 00:35:09;;;;;;;21.98;5.68;;;15.10;72.10;;;;;;4081862;28;20098;-82
2022/06/11 00:37:28;;;;;;;13.70;5.20;;;15.20;72.30;;;;;;4068650;28;20128;-82
2022/06/11 00:39:48;;;;;;;18.85;5.32;;;15.20;72.30;;;;;;4067593;28;20063;-82
2022/06/11 00:42:12;;;;;;;21.48;5.25;;;15.20;72.30;;;;;;4078051;28;20086;-82
2022/06/11 00:44:33;;;;;;;16.70;5.70;;;15.20;72.30;;;;;;4086896;28;20046;-82
2022/06/11 00:47:10;;;;;;;18.35;5.28;;;15.20;72.30;;;;;;4091248;28;20088;-82
2022/06/11 00:49:36;;;;;;;18.17;5.32;;;15.20;72.60;;;;;;4083911;28;20041;-82
2022/06/11 00:52:20;;;;;;;13.43;4.90;;;15.20;72.40;;;;;;4080961;28;20131;-82
2022/06/11 00:54:25;;;;;;;21.20;5.47;;;15.20;72.60;;;;;;4083416;28;20058;-82
2022/06/11 00:56:44;;;;;;;18.90;5.50;;;15.20;72.30;;;;;;4077368;28;20079;-81
2022/06/11 00:58:49;;;;;;;19.42;5.40;;;15.20;72.60;;;;;;4076975;28;20035;-82
2022/06/11 01:00:52;;;;;;;16.60;5.18;;;15.20;72.30;;;;;;4088253;28;20164;-82
2022/06/11 01:02:55;;;;;;;21.55;5.35;;;15.20;72.40;;;;;;4071971;28;20408;-81
2022/06/11 01:05:00;;;;;;;20.27;5.63;;;15.20;72.50;;;;;;4075530;28;20777;-82
2022/06/11 01:07:07;;;;;;;16.48;6.00;;;15.20;72.50;;;;;;4087130;28;22293;-82
2022/06/11 01:09:42;;;;;;;15.98;5.20;;;15.20;72.60;;;;;;4086021;28;20028;-82
2022/06/11 01:12:12;;;;;;;23.75;5.18;;;15.20;73.00;;;;;;4035409;29;20041;-81
2022/06/11 01:14:35;;;;;;;16.50;5.57;;;15.20;72.70;;;;;;4037541;29;20393;-82
2022/06/11 01:16:59;;;;;;;20.08;5.00;;;15.20;72.40;;;;;;4031613;29;20041;-82
2022/06/11 01:19:19;;;;;;;19.67;4.93;;;15.20;72.50;;;;;;4038038;29;20037;-81
2022/06/11 01:21:36;;;;;;;9.18;4.38;;;15.20;72.60;;;;;;4042498;29;20045;-82
2022/06/11 01:24:19;;;;;;;16.90;4.72;;;15.20;72.50;;;;;;4035048;29;20801;-81
2022/06/11 01:26:28;;;;;;;15.90;4.35;;;15.20;72.80;;;;;;4025862;29;20052;-82
2022/06/11 01:28:46;;;;;;;16.45;4.93;;;15.20;72.60;;;;;;4032150;29;20615;-82
2022/06/11 01:31:12;;;;;;;13.60;4.75;;;15.20;72.70;;;;;;4034187;29;20526;-82
2022/06/11 01:33:31;;;;;;;15.43;4.30;;;15.20;72.60;;;;;;4039218;29;20037;-81
2022/06/11 01:35:41;;;;;;;17.30;4.80;;;15.20;72.80;;;;;;4034908;29;20146;-82
2022/06/11 01:37:55;;;;;;;16.15;4.88;;;15.20;72.60;;;;;;4030168;29;20071;-82
2022/06/11 01:40:04;;;;;;;15.98;4.57;;;15.20;72.70;;;;;;4027142;29;20045;-82
2022/06/11 01:42:34;;;;;;;23.35;5.38;;;15.20;72.60;;;;;;4025773;29;20033;-82
2022/06/11 01:44:40;;;;;;;18.10;4.60;;;15.20;72.70;;;;;;4033072;29;20111;-82
2022/06/11 01:46:45;;;;;;;14.13;5.03;;;15.20;72.50;;;;;;4066107;29;20035;-82
2022/06/11 01:49:15;;;;;;;14.70;4.40;;;15.10;72.50;;;;;;4082277;28;20027;-82
2022/06/11 01:51:27;;;;;;;16.63;4.50;;;15.10;72.50;;;;;;4003205;29;20537;-81
2022/06/11 01:53:45;;;;;;;18.45;4.80;;;15.10;72.40;;;;;;4014909;29;20051;-82
2022/06/11 01:56:00;;;;;;;17.58;5.13;;;15.20;72.60;;;;;;4013910;29;20072;-81
2022/06/11 01:58:07;;;;;;;20.48;5.07;;;15.20;72.50;;;;;;4017474;29;20151;-82
2022/06/11 02:00:20;;;;;;;18.27;4.50;;;15.10;72.50;;;;;;4020169;29;20562;-82
2022/06/11 02:02:54;;;;;;;15.68;4.85;;;15.10;72.50;;;;;;4015717;29;20045;-82
2022/06/11 02:05:39;;;;;;;17.70;4.70;;;15.10;72.70;;;;;;4004795;29;21982;-82
2022/06/11 02:08:12;;;;;;;19.30;4.70;;;15.10;72.80;;;;;;3988434;29;20033;-82
2022/06/11 02:10:35;;;;;;;20.92;4.82;;;15.10;72.80;;;;;;4011425;29;20116;-82
2022/06/11 02:12:59;;;;;;;17.50;4.60;;;15.10;72.60;;;;;;4010171;29;20033;-81
2022/06/11 02:15:04;;;;;;;;;;;15.10;72.70;;;;;;4017653;29;20049;-82
2022/06/11 02:17:36;;;;;;;17.15;4.95;;;15.10;73.00;;;;;;4013461;29;19912;-82
2022/06/11 02:20:04;;;;;;;15.18;4.15;;;15.10;72.40;;;;;;3979573;29;20092;-82
2022/06/11 02:22:43;;;;;;;16.73;4.28;;;15.10;72.40;;;;;;3973414;29;20136;-82
2022/06/11 02:25:08;;;;;;;12.77;4.38;;;15.00;72.30;;;;;;3990111;29;20045;-81
2022/06/11 02:27:17;;;;;;;17.35;4.72;;;15.00;72.30;;;;;;3979452;29;20551;-82
2022/06/11 02:29:31;;;;;;;9.52;3.70;;;15.00;72.20;;;;;;4021595;29;20036;-81
2022/06/11 02:31:54;;;;;;;13.65;4.35;;;15.00;72.20;;;;;;4037904;29;20091;-81
2022/06/11 02:34:03;;;;;;;15.20;4.57;;;15.00;72.30;;;;;;4037766;29;20036;-82
2022/06/11 02:36:31;;;;;;;19.85;4.05;;;15.00;72.30;;;;;;4048925;29;20036;-81
2022/06/11 02:38:33;;;;;;;23.30;4.57;;;15.00;72.50;;;;;;4025467;29;20041;-82
2022/06/11 02:40:55;;;;;;;16.25;4.13;;;15.00;72.40;;;;;;4030640;29;20107;-82
2022/06/11 02:42:56;;;;;;;15.98;4.18;;;15.00;72.50;;;;;;4040025;29;20028;-81
2022/06/11 02:44:58;;;;;;;16.98;4.18;;;14.90;72.40;;;;;;4045517;29;20039;-82
2022/06/11 02:47:00;;;;;;;16.20;4.32;;;14.90;72.40;;;;;;4052012;29;20079;-82
2022/06/11 02:49:02;;;;;;;13.43;4.00;;;14.90;72.40;;;;;;4041076;29;20180;-82
2022/06/11 02:51:03;;;;;;;11.85;3.90;;;14.90;72.50;;;;;;4070244;28;20587;-81
2022/06/11 02:53:07;;;;;;;12.38;3.60;;;14.90;72.50;;;;;;4071671;29;20028;-82
2022/06/11 02:55:09;;;;;;;14.70;3.90;;;14.90;72.50;;;;;;4080752;28;20083;-82
2022/06/11 02:57:14;;;;;;;15.18;4.45;;;14.90;72.40;;;;;;4090221;28;20051;-82
2022/06/11 02:59:15;;;;;;;12.65;3.75;;;14.90;72.30;;;;;;4082534;28;21251;-82
2022/06/11 03:01:17;;;;;;;9.32;3.42;;;14.80;72.20;;;;;;4081889;28;20104;-81
2022/06/11 03:03:21;;;;;;;11.52;3.60;;;14.80;72.20;;;;;;4078258;28;20114;-82
2022/06/11 03:05:29;;;;;;;17.70;4.30;;;14.80;72.20;;;;;;4077842;28;20113;-82
2022/06/11 03:07:31;;;;;;;15.05;3.53;;;14.80;72.30;;;;;;4061718;29;20040;-81
2022/06/11 03:09:34;;;;;;;11.52;3.67;;;14.80;72.40;;;;;;4086194;28;20039;-82
2022/06/11 03:11:35;;;;;;;16.42;3.75;;;14.70;72.30;;;;;;4088387;28;20047;-82
2022/06/11 03:13:36;;;;;;;12.00;3.13;;;14.80;72.50;;;;;;4068750;29;20047;-82
2022/06/11 03:15:37;;;;;;;12.60;3.85;;;14.80;72.70;;;;;;4067582;29;20034;-81
2022/06/11 03:17:38;;;;;;;17.27;3.78;;;14.80;72.80;;;;;;4091772;28;20462;-81
2022/06/11 03:19:40;;;;;;;14.80;3.95;;;14.70;72.90;;;;;;4089657;28;20039;-82
2022/06/11 03:21:42;;;;;;;11.63;3.88;;;14.80;73.10;;;;;;4083327;28;20483;-81
2022/06/11 03:23:44;;;;;;;13.77;3.60;;;14.80;73.30;;;;;;4069790;29;20032;-81
2022/06/11 03:25:45;;;;;;;14.93;3.78;;;14.70;73.30;;;;;;4090575;28;20035;-81
2022/06/11 03:27:47;;;;;;;18.08;3.50;;;14.70;73.30;;;;;;4083590;28;20708;-82
2022/06/11 03:29:50;;;;;;;13.75;3.80;;;14.70;73.40;;;;;;4064197;29;20022;-82
2022/06/11 03:31:53;;;;;;;12.85;3.92;;;14.70;73.40;;;;;;4089829;28;20182;-82
2022/06/11 03:33:54;;;;;;;15.98;3.42;;;14.80;73.40;;;;;;4070456;29;20518;-82
2022/06/11 03:36:07;;;;;;;20.23;4.00;;;14.70;73.40;;;;;;4063851;29;20106;-82
2022/06/11 03:38:15;;;;;;;16.95;4.20;;;14.70;73.80;;;;;;4044128;29;20408;-82
2022/06/11 03:40:42;;;;;;;19.05;3.70;;;14.80;73.70;;;;;;4085631;28;20031;-82
2022/06/11 03:45:58;;;;;;;16.30;3.78;;;14.80;74.10;;;;;;4056269;29;20040;-82
2022/06/11 03:48:28;;;;;;;15.82;3.88;;;14.80;74.60;;;;;;4015618;29;20632;-82
2022/06/11 03:50:49;;;;;;;18.65;3.80;;;14.80;74.50;;;;;;4016627;29;20081;-82
2022/06/11 03:53:11;;;;;;;19.02;4.18;;;14.80;74.60;;;;;;4021219;29;20088;-82
2022/06/11 03:55:38;;;;;;;13.93;4.30;;;14.90;74.80;;;;;;4025573;29;20044;-82
2022/06/11 03:58:00;;;;;;;12.55;3.60;;;14.90;74.80;;;;;;4036541;29;20040;-82
2022/06/11 04:03:11;;;;;;;19.10;4.45;;;15.00;75.10;;;;;;4034323;29;20040;-81
2022/06/11 04:05:34;;;;;;;22.63;4.32;;;15.00;75.40;;;;;;4035348;29;20127;-81
2022/06/11 04:08:13;;;;;;;17.35;4.05;;;15.00;75.70;;;;;;4037798;29;20478;-82
2022/06/11 04:10:37;;;;;;;13.93;4.63;;;15.10;76.30;;;;;;4048668;29;20048;-82
2022/06/11 04:12:52;;;;;;;17.20;4.47;;;15.20;76.40;;;;;;4013361;29;20046;-82
2022/06/11 04:15:16;;;;;;;24.17;4.03;;;15.20;76.80;;;;;;4042331;29;20035;-82
2022/06/11 04:17:43;;;;;;;14.90;4.13;;;15.30;76.90;;;;;;4043726;29;20028;-81
2022/06/11 04:20:08;;;;;;;11.30;3.90;;;15.40;77.10;;;;;;4041701;29;20048;-81
2022/06/11 04:22:29;;;;;;;17.88;3.42;;;15.50;76.90;;;;;;4042993;29;20123;-81
2022/06/11 04:24:52;;;;;;;12.52;3.95;;;15.50;76.60;;;;;;4055400;28;20067;-81
2022/06/11 04:27:15;;;;;;;17.73;3.67;;;15.60;76.30;;;;;;4083770;28;20940;-82
2022/06/11 04:29:42;;;;;;;9.63;3.60;;;15.70;76.10;;;;;;4090166;28;20046;-82
2022/06/11 04:32:05;;;;;;;12.85;4.07;;;15.70;75.80;;;;;;4074349;28;20043;-82
2022/06/11 04:34:28;;;;;;;13.02;3.72;;;15.80;75.60;;;;;;4085601;28;20046;-82
2022/06/11 04:36:50;;;;;;;15.38;4.47;;;15.80;75.50;;;;;;4088078;28;20134;-82
2022/06/11 04:39:13;;;;;;;15.38;4.20;;;15.80;75.30;;;;;;4077612;28;20110;-82
2022/06/11 04:41:34;;;;;;;12.40;4.13;;;15.90;75.20;;;;;;4077952;29;20466;-82
2022/06/11 04:43:55;;;;;;;19.70;3.95;;;15.90;75.20;;;;;;4093051;28;20059;-82
2022/06/11 04:46:16;;;;;;;17.08;3.40;;;15.90;75.30;;;;;;4095194;28;20408;-82
2022/06/11 04:48:38;;;;;;;15.75;3.72;;;16.00;75.30;;;;;;4095061;28;20040;-82
2022/06/11 04:50:59;;;;;;;16.27;4.88;;;16.00;75.20;;;;;;4094818;28;20645;-82
2022/06/11 04:53:20;;;;;;;13.30;3.33;;;16.00;75.10;;;;;;4082268;28;20046;-82
2022/06/11 04:55:40;;;;;;;15.23;3.40;;;16.10;75.00;;;;;;4084136;28;20031;-82
2022/06/11 04:58:02;;;;;;;11.50;3.65;;;16.10;75.00;;;;;;4088792;28;20039;-82
2022/06/11 05:00:26;;;;;;;11.75;3.42;;;16.10;74.90;;;;;;4071818;28;20370;-82
2022/06/11 05:02:47;;;;;;;11.75;3.28;;;16.20;74.90;;;;;;4090653;28;20459;-82
2022/06/11 05:05:09;;;;;;;16.52;3.53;;;16.20;74.80;;;;;;4078702;28;20131;-82
2022/06/11 05:07:29;;;;;;;13.43;4.10;;;16.20;74.70;;;;;;4090879;28;20031;-82
2022/06/11 05:09:50;;;;;;;11.07;3.90;;;16.20;74.60;;;;;;4090243;28;20110;-82
2022/06/11 05:12:12;;;;;;;9.98;3.58;;;16.20;74.50;;;;;;4085530;28;20035;-82
2022/06/11 05:14:33;;;;;;;10.68;3.65;;;16.30;74.60;;;;;;4088067;28;20094;-82
2022/06/11 05:16:56;;;;;;;9.38;3.05;;;16.30;74.60;;;;;;4089764;28;20048;-82
2022/06/11 05:19:19;;;;;;;15.65;3.95;;;16.30;74.60;;;;;;4091711;28;20034;-82
2022/06/11 05:21:40;;;;;;;15.02;3.85;;;16.40;74.60;;;;;;4092305;28;20039;-82
2022/06/11 05:24:01;;;;;;;12.65;4.15;;;16.40;74.60;;;;;;4087184;28;20035;-82
2022/06/11 05:26:26;;;;;;;11.38;3.38;;;16.40;74.50;;;;;;4094047;28;20478;-82
2022/06/11 05:28:47;;;;;;;15.23;4.28;;;16.50;74.60;;;;;;4086939;28;20619;-82
2022/06/11 05:31:08;;;;;;;11.75;3.88;;;16.50;74.60;;;;;;4087540;28;20031;-82
2022/06/11 05:33:29;;;;;;;14.88;3.90;;;16.50;74.50;;;;;;4073908;29;21202;-82
2022/06/11 05:35:51;;;;;;;10.40;3.70;;;16.60;74.50;;;;;;4089065;28;20034;-82
2022/06/11 05:38:16;;;;;;;14.23;3.78;;;16.60;74.50;;;;;;4088339;28;20039;-82
2022/06/11 05:40:41;;;;;;;10.98;3.75;;;16.60;74.60;;;;;;4089755;28;20046;-82
2022/06/11 05:43:00;;;;;;;15.65;3.35;;;16.70;74.90;;;;;;4093366;28;20042;-81
2022/06/11 05:45:27;;;;;;;10.63;3.50;;;16.80;75.00;;;;;;4089695;28;20242;-82
2022/06/11 05:47:50;;;;;;;11.52;3.25;;;16.80;74.80;;;;;;4091461;28;20127;-82
2022/06/11 05:50:13;;;;;;;12.43;3.55;;;16.90;74.70;;;;;;4088428;28;20039;-82
2022/06/11 05:52:37;;;;;;;11.20;3.22;;;16.90;74.40;;;;;;4076804;28;20064;-82
2022/06/11 05:54:57;;;;;;;15.80;3.53;;;17.00;74.30;;;;;;4087669;28;20098;-82
2022/06/11 05:57:21;;;;;;;16.13;3.75;;;17.00;74.30;;;;;;4090454;28;20046;-81
2022/06/11 05:59:46;;;;;;;15.65;3.33;;;17.00;74.70;;;;;;4088976;28;20708;-82
2022/06/11 06:02:10;;;;;;;12.23;2.90;;;17.20;75.10;;;;;;4089993;28;20034;-82
2022/06/11 06:04:30;;;;;;;12.23;3.47;;;17.30;75.00;;;;;;4088699;28;20043;-82
2022/06/11 06:06:50;;;;;;;11.35;3.00;;;17.40;74.70;;;;;;4088045;28;22022;-82
2022/06/11 06:09:10;;;;;;;10.00;3.38;;;17.50;74.20;;;;;;4090371;28;20042;-81
2022/06/11 06:11:29;;;;;;;11.88;2.95;;;17.60;73.70;;;;;;4090080;28;20540;-81
2022/06/11 06:13:49;;;;;;;13.85;4.20;;;17.60;73.20;;;;;;4094100;28;20550;-81
2022/06/11 06:16:09;;;;;;;12.35;2.97;;;17.70;72.70;;;;;;4091165;28;20046;-81
2022/06/11 06:18:28;;;;;;;13.93;3.55;;;17.70;72.30;;;;;;4084329;28;20460;-81
2022/06/11 06:20:48;;;;;;;9.13;3.40;;;17.80;72.00;;;;;;4084773;28;20054;-82
2022/06/11 06:23:10;;;;;;;13.02;3.78;;;17.80;71.70;;;;;;4075229;28;20059;-81
2022/06/11 06:25:39;;;;;;;15.93;4.15;;;17.90;71.60;;;;;;4079002;28;20535;-81
2022/06/11 06:28:03;;;;;;;8.90;3.58;;;18.00;71.40;;;;;;4087783;28;20504;-81
2022/06/11 06:30:35;;;;;;;9.30;3.40;;;18.00;71.30;;;;;;4088845;28;20033;-81
2022/06/11 06:32:54;;;;;;;14.25;4.15;;;18.10;71.10;;;;;;4076248;28;20043;-82
2022/06/11 06:35:28;;;;;;;9.30;4.00;;;18.10;70.80;;;;;;4089590;28;20050;-82
2022/06/11 06:38:03;;;;;;;7.38;3.67;;;18.10;70.30;;;;;;4093439;28;20188;-82
2022/06/11 06:40:27;;;;;;;9.90;3.80;;;18.20;70.30;;;;;;4087987;28;20998;-81
2022/06/11 06:42:46;;;;;;;12.02;4.18;;;18.20;70.40;;;;;;4087898;28;20050;-81
2022/06/11 06:45:09;;;;;;;11.05;4.43;;;18.20;70.30;;;;;;4089824;28;20444;-81
2022/06/11 06:47:33;;;;;;;13.20;5.03;;;18.30;70.40;;;;;;4067540;28;20129;-80
2022/06/11 06:49:53;;;;;;;14.68;5.00;;;18.30;70.40;;;;;;4065188;28;20258;-81
2022/06/11 06:52:13;;;;;;;13.00;4.80;;;18.40;70.40;;;;;;4086860;28;20042;-80
2022/06/11 06:54:32;;;;;;;15.27;5.75;;;18.40;70.50;;;;;;4088012;28;20054;-81
2022/06/11 06:56:51;;;;;;;11.88;4.78;;;18.50;70.60;;;;;;4092461;28;20407;-81
2022/06/11 06:59:11;;;;;;;17.90;5.45;;;18.60;70.70;;;;;;4085973;28;20042;-81
2022/06/11 07:01:31;;;;;;;20.40;5.60;;;18.70;70.40;;;;;;4093407;28;20050;-81
2022/06/11 07:03:51;;;;;;;13.27;4.68;;;18.80;70.10;;;;;;4085297;28;20059;-81
2022/06/11 07:06:10;;;;;;;11.52;5.00;;;18.90;69.20;;;;;;4075752;28;20554;-81
2022/06/11 07:08:29;;;;;;;12.70;4.90;;;18.90;68.60;;;;;;4091689;28;20034;-82
2022/06/11 07:10:51;;;;;;;16.50;4.90;;;19.00;67.90;;;;;;4088247;28;20041;-81
2022/06/11 07:13:11;;;;;;;15.48;5.00;;;19.00;66.10;;;;;;4092095;28;20817;-81
2022/06/11 07:15:31;;;;;;;14.43;4.70;;;19.10;66.10;;;;;;4089083;28;20042;-81
2022/06/11 07:17:57;;;;;;;14.57;4.28;;;19.10;65.30;;;;;;4091399;28;20074;-80
2022/06/11 07:20:21;;;;;;;13.23;3.92;;;19.10;65.50;;;;;;4084407;28;20114;-81
2022/06/11 07:22:52;;;;;;;12.32;4.38;;;19.10;66.10;;;;;;4087789;28;20042;-81
2022/06/11 07:25:13;;;;;;;12.57;3.40;;;19.10;66.20;;;;;;4090670;28;20047;-80
2022/06/11 07:27:37;;;;;;;15.57;3.50;;;19.20;66.40;;;;;;4085998;28;20038;-81
2022/06/11 07:30:08;;;;;;;15.00;3.15;;;19.20;65.70;;;;;;4079046;28;20042;-80
2022/06/11 07:32:35;;;;;;;17.02;3.47;;;19.30;65.50;;;;;;4087982;28;20042;-81
2022/06/11 07:34:54;;;;;;;13.52;2.85;;;19.50;64.90;;;;;;4085694;28;20137;-81
2022/06/11 07:37:15;;;;;;;14.27;2.83;;;19.60;64.20;;;;;;4086471;28;20514;-81
2022/06/11 07:39:35;;;;;;;13.27;2.72;;;19.60;63.20;;;;;;4081669;28;21267;-81
2022/06/11 07:41:57;;;;;;;15.25;2.40;;;19.70;62.10;;;;;;4069593;28;20066;-81
2022/06/11 07:44:17;;;;;;;13.98;2.88;;;19.80;61.30;;;;;;4070399;28;20479;-82
2022/06/11 07:46:36;;;;;;;18.50;3.10;;;20.00;61.40;;;;;;4084209;28;20094;-81
2022/06/11 07:48:56;;;;;;;15.57;3.00;;;20.10;60.60;;;;;;4087735;28;20050;-81
2022/06/11 07:51:19;;;;;;;13.98;2.80;;;20.20;59.80;;;;;;4086951;28;20109;-82
2022/06/11 07:53:43;;;;;;;6.80;2.10;;;20.30;59.60;;;;;;4082299;28;20049;-81
2022/06/11 07:56:03;;;;;;;9.98;2.28;;;20.40;59.50;;;;;;4076002;28;20043;-81
2022/06/11 07:58:41;;;;;;;10.77;2.88;;;20.50;59.50;;;;;;4081919;28;20617;-81
2022/06/11 08:01:05;;;;;;;18.05;2.90;;;20.50;58.40;;;;;;4077467;28;22194;-81
2022/06/11 08:03:31;;;;;;;11.70;2.08;;;20.60;58.20;;;;;;4069735;29;20082;-81
2022/06/11 08:05:51;;;;;;;9.98;2.38;;;20.70;58.10;;;;;;4082091;28;20066;-80
2022/06/11 08:08:14;;;;;;;11.95;2.45;;;20.70;56.90;;;;;;4087740;28;20067;-80
2022/06/11 08:10:36;;;;;;;9.40;2.00;;;20.80;56.80;;;;;;4084281;28;20094;-81
2022/06/11 08:12:56;;;;;;;11.23;2.25;;;20.80;57.00;;;;;;4094280;28;20141;-81
2022/06/11 08:15:17;;;;;;;9.05;2.08;;;20.90;56.90;;;;;;4084847;28;20063;-81
2022/06/11 08:17:40;;;;;;;8.65;1.88;;;20.90;56.50;;;;;;4089321;28;20179;-81
2022/06/11 08:20:02;;;;;;;12.30;2.58;;;20.90;56.20;;;;;;4087653;28;21205;-81
2022/06/11 08:22:23;;;;;;;11.05;2.60;;;20.90;56.50;;;;;;4070859;28;20130;-82
2022/06/11 08:24:42;;;;;;;11.63;2.58;;;20.90;56.40;;;;;;4080239;28;20039;-80
2022/06/11 08:27:02;;;;;;;8.82;1.75;;;20.90;56.40;;;;;;4085160;28;20078;-81
2022/06/11 08:29:21;;;;;;;14.57;2.70;;;20.80;56.20;;;;;;4088238;28;20396;-81
2022/06/11 08:31:41;;;;;;;13.60;2.38;;;20.80;55.70;;;;;;4087103;28;20062;-81
2022/06/11 08:33:41;;;;;;;7.95;2.38;;;20.70;55.80;;;;;;4080162;28;20035;-82
2022/06/11 08:35:43;;;;;;;13.07;3.30;;;20.70;55.60;;;;;;4088461;28;20755;-82
2022/06/11 08:37:44;;;;;;;10.75;2.78;;;20.70;55.70;;;;;;4086296;28;20135;-83
2022/06/11 08:39:45;;;;;;;12.95;2.35;;;20.60;55.60;;;;;;4074502;29;20030;-82
2022/06/11 08:41:46;;;;;;;8.27;2.10;;;20.60;55.50;;;;;;4087740;28;20039;-82
2022/06/11 08:44:09;;;;;;;10.15;2.00;;;20.60;55.60;;;;;;4089751;28;20150;-82
2022/06/11 08:46:14;;;;;;;10.27;2.03;;;20.60;55.90;;;;;;4095209;28;20475;-82
2022/06/11 08:48:25;;;;;;;15.40;2.30;;;20.60;55.20;;;;;;4071998;29;20028;-83
2022/06/11 08:50:33;;;;;;;6.82;1.67;;;20.50;53.90;;;;;;4085217;28;20130;-82
2022/06/11 08:52:34;;;;;;;6.25;2.13;;;20.50;53.00;;;;;;4085228;28;20033;-82
2022/06/11 08:54:39;;;;;;;11.07;1.90;;;20.50;52.90;;;;;;4088950;28;20475;-82
2022/06/11 08:57:03;;;;;;;10.27;1.90;;;20.40;52.90;;;;;;4087076;28;20040;-82
2022/06/11 08:59:43;;;;;;;10.70;1.80;;;20.40;53.20;;;;;;4088892;28;20039;-81
2022/06/11 09:02:15;;;;;;;11.07;2.13;;;20.40;53.50;;;;;;4088981;28;20035;-83
2022/06/11 09:04:18;;;;;;;10.57;2.08;;;20.50;53.30;;;;;;4087856;28;20066;-83
2022/06/11 09:06:31;;;;;;;13.63;2.72;;;20.50;53.40;;;;;;4085639;28;20027;-82
2022/06/11 09:08:32;;;;;;;10.43;1.85;;;20.50;52.60;;;;;;4088110;28;20037;-82
2022/06/11 09:10:38;;;;;;;10.63;2.63;;;20.60;53.30;;;;;;4093911;28;20043;-82
2022/06/11 09:13:20;;;;;;;11.02;2.58;;;20.60;53.40;;;;;;4099733;28;20075;-82
2022/06/11 09:15:35;;;;;;;11.15;1.88;;;20.70;52.70;;;;;;4070700;29;20039;-83
2022/06/11 09:18:04;;;;;;;11.57;2.20;;;20.70;53.50;;;;;;4203494;23;20128;-82
2022/06/11 09:20:36;;;;;;;10.73;1.80;;;20.80;53.40;;;;;;4118243;28;20054;-81
2022/06/11 09:22:57;;;;;;;11.75;2.08;;;20.90;53.20;;;;;;4136288;28;20442;-81
2022/06/11 09:25:04;;;;;;;12.27;2.80;;;20.90;54.20;;;;;;4119085;28;20397;-82
2022/06/11 09:30:47;;;;;;;13.93;2.40;;;21.00;52.20;;;;;;4074673;29;20151;-82
2022/06/11 09:32:56;;;;;;;10.45;2.10;;;21.00;52.50;;;;;;4025643;29;20033;-81
2022/06/11 09:35:47;;;;;;;;;;;;;;;;;;;;;
2022/06/11 09:38:22;;;;;;;8.07;2.22;;;21.00;52.20;;;;;;4038217;29;20048;-81
2022/06/11 09:40:51;;;;;;;12.40;2.65;;;21.00;52.90;;;;;;4025013;29;20041;-82
2022/06/11 09:43:06;;;;;;;11.88;2.50;;;21.00;53.50;;;;;;4040637;29;20588;-82
2022/06/11 09:45:28;;;;;;;11.27;2.35;;;21.00;53.70;;;;;;4036206;29;20044;-82
2022/06/11 09:47:57;;;;;;;18.13;3.03;;;21.00;53.40;;;;;;4029359;29;20047;-82
2022/06/11 09:50:23;;;;;;;12.63;3.00;;;21.00;52.70;;;;;;4022471;29;20088;-82
2022/06/11 09:52:42;;;;;;;11.02;2.58;;;21.00;53.20;;;;;;4035472;29;20065;-82
2022/06/11 09:54:43;;;;;;;13.75;2.42;;;21.00;53.30;;;;;;4016603;29;20164;-82
2022/06/11 09:57:22;;;;;;;19.05;3.33;;;21.00;53.60;;;;;;4039224;29;20040;-82
2022/06/11 09:59:36;;;;;;;21.27;4.32;;;21.10;54.00;;;;;;4032894;29;20025;-83
2022/06/11 10:01:55;;;;;;;22.08;4.07;;;21.10;53.70;;;;;;4023490;29;20041;-82
2022/06/11 10:04:03;;;;;;;22.70;3.28;;;21.20;53.90;;;;;;4020891;29;20222;-82
2022/06/11 10:06:26;;;;;;;18.90;3.28;;;21.20;53.90;;;;;;4014574;29;20044;-82
2022/06/11 10:08:55;;;;;;;20.52;4.05;;;21.20;53.90;;;;;;4063919;29;20085;-82
2022/06/11 10:11:22;;;;;;;12.18;3.13;;;21.20;54.00;;;;;;4120601;28;20030;-82
2022/06/11 10:13:52;;;;;;;25.75;4.30;;;21.30;53.80;;;;;;4119197;28;20034;-83
2022/06/11 10:16:23;;;;;;;17.60;3.45;;;21.30;53.60;;;;;;4129297;28;20128;-82
2022/06/11 10:18:45;;;;;;;17.40;4.05;;;21.30;53.50;;;;;;4117421;28;20153;-82
2022/06/11 10:21:13;;;;;;;16.25;3.30;;;21.30;53.70;;;;;;4120027;28;20049;-81
2022/06/11 10:26:56;;;;;;;13.00;3.40;;;21.50;53.80;;;;;;4070148;29;20408;-82
2022/06/11 10:29:33;;;;;;;17.10;3.60;;;21.50;53.50;;;;;;4068018;29;20484;-81
2022/06/11 10:32:20;;;;;;;18.85;3.50;;;21.60;53.90;;;;;;4067611;29;20810;-82
2022/06/11 10:34:47;;;;;;;25.95;4.10;;;21.70;54.10;;;;;;4060547;29;20042;-81
2022/06/11 10:37:12;;;;;;;19.02;3.63;;;21.80;53.50;;;;;;4068521;29;20031;-82
2022/06/11 10:39:28;;;;;;;17.83;3.97;;;21.90;53.00;;;;;;4063238;29;20035;-82
2022/06/11 10:41:56;;;;;;;18.25;3.70;;;21.90;53.10;;;;;;4053311;29;20053;-82
2022/06/11 10:44:22;;;;;;;14.25;3.08;;;22.00;53.10;;;;;;4066486;29;20043;-83
2022/06/11 10:46:23;;;;;;;14.98;3.60;;;22.10;52.60;;;;;;4069122;29;20063;-83
2022/06/11 10:48:29;;;;;;;20.70;4.05;;;22.10;52.50;;;;;;4070853;29;20035;-82
2022/06/11 10:50:33;;;;;;;23.38;3.97;;;22.10;52.50;;;;;;4067641;29;20512;-82
2022/06/11 10:52:51;;;;;;;16.63;3.42;;;22.20;52.40;;;;;;4072467;29;20139;-82
2022/06/11 10:54:53;;;;;;;24.58;4.47;;;22.10;52.10;;;;;;4068788;29;20036;-83
2022/06/11 10:57:31;;;;;;;22.45;4.55;;;22.20;52.40;;;;;;4072027;29;20047;-82
2022/06/11 10:59:44;;;;;;;22.10;4.00;;;22.20;52.30;;;;;;4069745;29;20039;-82
2022/06/11 11:01:52;;;;;;;18.42;4.22;;;22.20;52.40;;;;;;4063816;29;20031;-82
2022/06/11 11:04:13;;;;;;;14.93;3.67;;;22.20;51.90;;;;;;4095406;28;20085;-82
2022/06/11 11:06:24;;;;;;;20.95;3.95;;;22.20;51.70;;;;;;4119629;28;20045;-83
2022/06/11 11:08:24;;;;;;;22.52;4.65;;;22.10;51.50;;;;;;4117907;28;20494;-82
2022/06/11 11:10:30;;;;;;;19.67;3.90;;;22.10;51.50;;;;;;4114955;28;20023;-82
2022/06/11 11:12:37;;;;;;;18.70;3.75;;;22.10;51.90;;;;;;4116385;28;20041;-83
2022/06/11 11:14:41;;;;;;;28.50;4.55;;;22.10;52.40;;;;;;4132931;28;20026;-81
2022/06/11 11:16:47;;;;;;;25.65;4.35;;;22.10;52.30;;;;;;4132658;28;20557;-81
2022/06/11 11:19:10;;;;;;;17.70;3.55;;;22.00;52.30;;;;;;4115167;28;22368;-82
2022/06/11 11:21:36;;;;;;;22.15;4.47;;;22.00;52.40;;;;;;4116740;28;20053;-82
2022/06/11 11:23:40;;;;;;;37.13;3.88;;;22.00;52.60;;;;;;4115355;28;20038;-82
2022/06/11 11:25:41;;;;;;;23.27;4.13;;;22.00;52.60;;;;;;4116618;28;20119;-83
2022/06/11 11:27:47;;;;;;;18.60;3.92;;;22.00;52.80;;;;;;4115540;28;20033;-82
2022/06/11 11:29:53;;;;;;;23.08;3.85;;;22.00;52.80;;;;;;4116032;28;20385;-82
2022/06/11 11:32:06;;;;;;;16.88;3.35;;;22.00;53.10;;;;;;4114706;28;20031;-81
2022/06/11 11:34:14;;;;;;;22.13;4.38;;;22.00;52.80;;;;;;4113686;28;20026;-82
2022/06/11 11:36:35;;;;;;;23.15;3.95;;;22.00;52.30;;;;;;4117103;28;20038;-82
2022/06/11 11:39:00;;;;;;;25.25;4.47;;;22.00;52.60;;;;;;4115564;28;20034;-82
2022/06/11 11:41:25;;;;;;;24.23;3.90;;;22.00;52.60;;;;;;4118084;28;20132;-81
2022/06/11 11:43:46;;;;;;;21.83;3.85;;;22.00;52.60;;;;;;4116263;28;20034;-82
2022/06/11 11:46:14;;;;;;;22.45;4.45;;;22.00;52.60;;;;;;4119158;28;20042;-81
2022/06/11 11:48:48;;;;;;;18.75;4.15;;;22.10;52.80;;;;;;4115103;28;20176;-82
2022/06/11 11:50:53;;;;;;;19.67;3.83;;;22.10;52.20;;;;;;4112487;28;20042;-81
2022/06/11 11:53:02;;;;;;;21.02;4.38;;;22.10;52.00;;;;;;4117421;28;20169;-82
2022/06/11 11:55:14;;;;;;;22.25;3.70;;;22.10;51.60;;;;;;4114109;28;20042;-81
2022/06/11 11:57:15;;;;;;;20.50;4.65;;;22.20;52.00;;;;;;4122016;28;20026;-81
2022/06/11 11:59:28;;;;;;;20.48;3.38;;;22.20;52.00;;;;;;4118017;28;20114;-81
2022/06/11 12:01:30;;;;;;;19.92;3.83;;;22.20;51.10;;;;;;4119072;28;20109;-83
2022/06/11 12:03:39;;;;;;;21.00;4.28;;;22.20;51.20;;;;;;4116037;28;20034;-82
2022/06/11 12:05:59;;;;;;;17.45;3.20;;;22.20;51.10;;;;;;4131912;28;20418;-82